Time;durP1;ratioP1;P1;durP2;ratioP2;P2;SDS_P1;SDS_P2;PMS_P1;PMS_P2;Temp;Humidity;BMP_temperature;BMP_pressure;BME280_temperature;BME280_humidity;BME280_pressure;Samples;Min_cycle;Max_cycle;Signal;HPM_P1;HPM_P2
2021/07/04 00:01:36;;;;;;;16.67;11.80;;;;;;;;;;5113001;28;20409;-52
2021/07/04 00:04:02;;;;;;;14.03;12.37;;;;;;;;;;5112601;28;20586;-52
2021/07/04 00:06:28;;;;;;;13.43;10.43;;;;;;;;;;5113065;28;20468;-51
2021/07/04 00:08:54;;;;;;;13.93;12.50;;;;;;;;;;5112837;28;20910;-52
2021/07/04 00:11:20;;;;;;;14.33;11.40;;;;;;;;;;5113390;28;20880;-52
2021/07/04 00:13:46;;;;;;;16.87;13.43;;;;;;;;;;5112249;28;20478;-52
2021/07/04 00:16:12;;;;;;;14.73;12.43;;;;;;;;;;5112617;28;20498;-52
2021/07/04 00:18:38;;;;;;;23.33;12.63;;;;;;;;;;5112372;28;20465;-52
2021/07/04 00:21:07;;;;;;;16.50;12.90;;;;;;;;;;5112653;28;20416;-52
2021/07/04 00:23:34;;;;;;;13.33;11.33;;;;;;;;;;5112497;28;20397;-52
2021/07/04 00:26:00;;;;;;;14.00;11.13;;;;;;;;;;5112308;28;20609;-52
2021/07/04 00:28:26;;;;;;;14.40;12.57;;;;;;;;;;5112334;28;20532;-51
2021/07/04 00:30:53;;;;;;;13.40;12.00;;;;;;;;;;5112200;28;20403;-52
2021/07/04 00:33:19;;;;;;;13.87;11.07;;;;;;;;;;5112385;28;20845;-52
2021/07/04 00:35:45;;;;;;;14.13;12.00;;;;;;;;;;5111876;28;20652;-52
2021/07/04 00:38:11;;;;;;;14.23;12.67;;;;;;;;;;5112202;28;20477;-52
2021/07/04 00:40:40;;;;;;;14.33;12.80;;;;;;;;;;5112093;28;20420;-52
2021/07/04 00:43:06;;;;;;;19.30;14.40;;;;;;;;;;5111845;28;20401;-52
2021/07/04 00:45:32;;;;;;;13.73;12.37;;;;;;;;;;5111639;28;20435;-52
2021/07/04 00:47:58;;;;;;;13.97;12.60;;;;;;;;;;5112176;28;20399;-52
2021/07/04 00:50:26;;;;;;;15.07;13.00;;;;;;;;;;5111929;28;20416;-52
2021/07/04 00:52:56;;;;;;;15.20;13.40;;;;;;;;;;5111966;28;20544;-52
2021/07/04 00:55:22;;;;;;;20.57;13.70;;;;;;;;;;5127819;27;20777;-52
2021/07/04 00:57:48;;;;;;;17.47;13.60;;;;;;;;;;5132267;27;20426;-52
2021/07/04 01:00:15;;;;;;;15.20;13.80;;;;;;;;;;5130504;27;20481;-52
2021/07/04 01:02:41;;;;;;;15.57;14.03;;;;;;;;;;5130906;27;20401;-52
2021/07/04 01:05:10;;;;;;;16.20;13.13;;;;;;;;;;5131730;27;20429;-52
2021/07/04 01:07:36;;;;;;;17.53;13.23;;;;;;;;;;5132066;27;20897;-52
2021/07/04 01:10:02;;;;;;;14.80;13.20;;;;;;;;;;5132212;27;20493;-52
2021/07/04 01:12:28;;;;;;;15.90;14.23;;;;;;;;;;5132297;27;20495;-52
2021/07/04 01:14:54;;;;;;;13.50;12.00;;;;;;;;;;5132256;27;20392;-52
2021/07/04 01:17:21;;;;;;;15.43;13.60;;;;;;;;;;5132458;27;20397;-52
2021/07/04 01:19:48;;;;;;;14.40;12.90;;;;;;;;;;5131274;27;20407;-52
2021/07/04 01:22:15;;;;;;;14.60;13.10;;;;;;;;;;5132041;27;20885;-52
2021/07/04 01:24:41;;;;;;;15.43;13.90;;;;;;;;;;5132075;27;20909;-52
2021/07/04 01:27:07;;;;;;;16.37;14.30;;;;;;;;;;5131811;27;20456;-52
2021/07/04 01:29:33;;;;;;;15.03;13.53;;;;;;;;;;5131938;27;20838;-52
2021/07/04 01:31:59;;;;;;;16.70;14.67;;;;;;;;;;5131790;27;20481;-52
2021/07/04 01:34:25;;;;;;;16.90;13.20;;;;;;;;;;5131541;27;20932;-52
2021/07/04 01:36:51;;;;;;;16.10;14.47;;;;;;;;;;5132272;27;20725;-52
2021/07/04 01:39:17;;;;;;;15.20;13.60;;;;;;;;;;5131695;27;20803;-52
2021/07/04 01:41:43;;;;;;;14.23;12.73;;;;;;;;;;5131767;27;20404;-52
2021/07/04 01:44:09;;;;;;;14.17;12.87;;;;;;;;;;5131430;27;20880;-52
2021/07/04 01:46:35;;;;;;;14.43;13.03;;;;;;;;;;5131768;27;20426;-52
2021/07/04 01:49:01;;;;;;;15.73;12.10;;;;;;;;;;5131632;27;20936;-52
2021/07/04 01:51:27;;;;;;;16.37;13.70;;;;;;;;;;5132120;27;20375;-52
2021/07/04 01:53:53;;;;;;;14.90;12.63;;;;;;;;;;5131078;27;20388;-52
2021/07/04 01:56:19;;;;;;;18.80;13.97;;;;;;;;;;5131561;27;20433;-52
2021/07/04 01:58:45;;;;;;;17.23;14.30;;;;;;;;;;5131525;28;20386;-52
2021/07/04 02:01:11;;;;;;;15.77;14.07;;;;;;;;;;5131539;28;20409;-52
2021/07/04 02:03:37;;;;;;;17.43;15.53;;;;;;;;;;5131279;28;20893;-52
2021/07/04 02:06:04;;;;;;;15.03;13.60;;;;;;;;;;5131291;28;20517;-52
2021/07/04 02:08:30;;;;;;;21.97;14.83;;;;;;;;;;5131222;28;20406;-52
2021/07/04 02:10:56;;;;;;;18.93;14.50;;;;;;;;;;5131426;28;20889;-52
2021/07/04 02:13:21;;;;;;;16.30;14.50;;;;;;;;;;5131321;28;20463;-52
2021/07/04 02:15:47;;;;;;;17.87;15.47;;;;;;;;;;5131202;28;20423;-52
2021/07/04 02:18:15;;;;;;;18.73;16.70;;;;;;;;;;5131360;28;20377;-52
2021/07/04 02:20:45;;;;;;;19.30;17.27;;;;;;;;;;5131392;28;20394;-52
2021/07/04 02:23:15;;;;;;;19.30;16.27;;;;;;;;;;5131118;28;20931;-52
2021/07/04 02:25:43;;;;;;;18.40;16.43;;;;;;;;;;5131177;28;20879;-52
2021/07/04 02:28:10;;;;;;;16.70;15.10;;;;;;;;;;5131194;28;20362;-52
2021/07/04 02:30:37;;;;;;;18.73;15.57;;;;;;;;;;5131573;27;20375;-52
2021/07/04 02:33:07;;;;;;;17.50;15.73;;;;;;;;;;5135096;27;20369;-52
2021/07/04 02:35:36;;;;;;;18.47;15.97;;;;;;;;;;5134938;27;20394;-52
2021/07/04 02:38:03;;;;;;;21.60;16.43;;;;;;;;;;5135177;27;20843;-52
2021/07/04 02:40:30;;;;;;;17.73;15.80;;;;;;;;;;5135109;27;20447;-52
2021/07/04 02:42:57;;;;;;;17.33;15.40;;;;;;;;;;5135179;27;20462;-52
2021/07/04 02:45:23;;;;;;;23.13;16.80;;;;;;;;;;5134751;27;20479;-52
2021/07/04 02:47:49;;;;;;;21.80;17.77;;;;;;;;;;5134925;27;20430;-52
2021/07/04 02:50:20;;;;;;;18.90;16.83;;;;;;;;;;5134874;27;20394;-52
2021/07/04 02:52:46;;;;;;;20.40;16.80;;;;;;;;;;5135052;27;20920;-52
2021/07/04 02:55:12;;;;;;;20.20;16.03;;;;;;;;;;5134837;27;20413;-52
2021/07/04 02:57:38;;;;;;;18.20;16.30;;;;;;;;;;5135087;27;20372;-52
2021/07/04 03:00:08;;;;;;;19.80;17.80;;;;;;;;;;5134846;27;20403;-52
2021/07/04 03:02:34;;;;;;;20.23;16.07;;;;;;;;;;5134796;27;20386;-52
2021/07/04 03:05:00;;;;;;;19.50;17.60;;;;;;;;;;5134438;27;20503;-52
2021/07/04 03:07:26;;;;;;;22.43;19.30;;;;;;;;;;5134499;27;20946;-52
2021/07/04 03:09:52;;;;;;;18.77;16.87;;;;;;;;;;5134700;27;20442;-52
2021/07/04 03:12:18;;;;;;;20.97;17.53;;;;;;;;;;5134634;27;20396;-52
2021/07/04 03:14:44;;;;;;;22.83;17.53;;;;;;;;;;5134140;27;20495;-52
2021/07/04 03:17:10;;;;;;;23.10;17.87;;;;;;;;;;5134416;27;20559;-52
2021/07/04 03:19:36;;;;;;;23.67;17.93;;;;;;;;;;5134337;27;20383;-52
2021/07/04 03:22:02;;;;;;;25.67;18.13;;;;;;;;;;5134403;27;20887;-52
2021/07/04 03:24:28;;;;;;;35.30;18.30;;;;;;;;;;5133939;27;20429;-52
2021/07/04 03:26:54;;;;;;;19.03;16.90;;;;;;;;;;5134205;27;20956;-52
2021/07/04 03:29:20;;;;;;;22.53;18.03;;;;;;;;;;5115838;27;20439;-52
2021/07/04 03:31:46;;;;;;;21.60;18.97;;;;;;;;;;5134023;27;20487;-51
2021/07/04 03:34:12;;;;;;;22.10;18.30;;;;;;;;;;5133746;27;20440;-52
2021/07/04 03:36:38;;;;;;;20.23;17.30;;;;;;;;;;5133992;27;20415;-52
2021/07/04 03:39:05;;;;;;;18.43;16.53;;;;;;;;;;5134085;27;20887;-52
2021/07/04 03:41:31;;;;;;;22.47;18.20;;;;;;;;;;5133876;27;20901;-52
2021/07/04 03:44:00;;;;;;;19.47;17.37;;;;;;;;;;5132592;27;20885;-52
2021/07/04 03:46:27;;;;;;;20.77;17.90;;;;;;;;;;5133654;27;20415;-52
2021/07/04 03:48:53;;;;;;;19.30;16.57;;;;;;;;;;5133998;27;20384;-52
2021/07/04 03:51:19;;;;;;;18.03;15.37;;;;;;;;;;5133625;27;20363;-52
2021/07/04 03:53:45;;;;;;;19.27;14.30;;;;;;;;;;5133781;27;20405;-52
2021/07/04 03:56:11;;;;;;;16.60;14.90;;;;;;;;;;5133516;27;20398;-52
2021/07/04 03:58:37;;;;;;;16.00;14.40;;;;;;;;;;5133631;27;20893;-52
2021/07/04 04:01:03;;;;;;;18.17;15.90;;;;;;;;;;5133401;27;20467;-52
2021/07/04 04:03:29;;;;;;;17.03;15.43;;;;;;;;;;5133882;27;20405;-52
2021/07/04 04:05:56;;;;;;;18.80;16.80;;;;;;;;;;5133221;27;20422;-52
2021/07/04 04:08:22;;;;;;;18.70;16.80;;;;;;;;;;5133504;27;20404;-51
2021/07/04 04:10:48;;;;;;;17.67;15.87;;;;;;;;;;5133359;27;20383;-52
2021/07/04 04:13:15;;;;;;;17.60;15.83;;;;;;;;;;5133247;27;20405;-52
2021/07/04 04:15:41;;;;;;;19.77;17.60;;;;;;;;;;5132945;27;20509;-52
2021/07/04 04:18:07;;;;;;;20.80;17.03;;;;;;;;;;5133291;27;20380;-52
2021/07/04 04:20:33;;;;;;;21.30;17.10;;;;;;;;;;5133082;27;20940;-52
2021/07/04 04:22:59;;;;;;;20.77;18.17;;;;;;;;;;5133178;27;20378;-52
2021/07/04 04:25:25;;;;;;;23.73;18.80;;;;;;;;;;5132901;27;20721;-52
2021/07/04 04:27:51;;;;;;;20.63;18.43;;;;;;;;;;5132903;27;20427;-52
2021/07/04 04:30:17;;;;;;;20.13;18.00;;;;;;;;;;5132984;27;20378;-52
2021/07/04 04:32:43;;;;;;;20.23;17.60;;;;;;;;;;5132947;27;20926;-52
2021/07/04 04:35:10;;;;;;;23.37;18.27;;;;;;;;;;5132537;27;20469;-52
2021/07/04 04:37:36;;;;;;;20.77;18.63;;;;;;;;;;5132877;27;20470;-52
2021/07/04 04:40:03;;;;;;;20.13;18.03;;;;;;;;;;5133244;27;20771;-52
2021/07/04 04:42:29;;;;;;;21.10;18.90;;;;;;;;;;5132623;27;20397;-52
2021/07/04 04:44:55;;;;;;;20.00;17.90;;;;;;;;;;5132441;27;20900;-52
2021/07/04 04:47:21;;;;;;;19.13;17.23;;;;;;;;;;5132652;27;20484;-51
2021/07/04 04:49:47;;;;;;;20.43;18.30;;;;;;;;;;5132723;27;20879;-52
2021/07/04 04:52:13;;;;;;;19.90;16.00;;;;;;;;;;5132683;27;20791;-52
2021/07/04 04:54:39;;;;;;;20.90;17.00;;;;;;;;;;5132593;27;20423;-52
2021/07/04 04:57:08;;;;;;;17.43;15.73;;;;;;;;;;5132569;27;20463;-52
2021/07/04 04:59:34;;;;;;;18.23;16.37;;;;;;;;;;5132688;27;20401;-52
2021/07/04 05:02:01;;;;;;;22.33;18.07;;;;;;;;;;5132452;27;20455;-52
2021/07/04 05:04:27;;;;;;;18.60;16.63;;;;;;;;;;5132068;27;20903;-52
2021/07/04 05:06:52;;;;;;;16.83;15.23;;;;;;;;;;5132249;27;20480;-52
2021/07/04 05:09:18;;;;;;;22.20;16.70;;;;;;;;;;5132305;27;20371;-52
2021/07/04 05:11:45;;;;;;;19.43;16.30;;;;;;;;;;5132135;27;20420;-52
2021/07/04 05:14:14;;;;;;;16.67;15.03;;;;;;;;;;5131903;27;20403;-52
2021/07/04 05:16:40;;;;;;;18.13;16.30;;;;;;;;;;5132166;27;20372;-52
2021/07/04 05:19:06;;;;;;;16.60;15.03;;;;;;;;;;5131954;27;20904;-52
2021/07/04 05:21:33;;;;;;;19.60;15.60;;;;;;;;;;5132106;27;20394;-52
2021/07/04 05:24:00;;;;;;;18.30;15.47;;;;;;;;;;5131714;27;20425;-52
2021/07/04 05:26:25;;;;;;;17.93;16.10;;;;;;;;;;5131906;27;20451;-52
2021/07/04 05:28:51;;;;;;;17.90;16.10;;;;;;;;;;5132106;27;20477;-52
2021/07/04 05:31:17;;;;;;;22.27;17.30;;;;;;;;;;5131949;27;20386;-52
2021/07/04 05:33:43;;;;;;;19.73;16.43;;;;;;;;;;5131471;27;20380;-52
2021/07/04 05:36:09;;;;;;;19.73;17.73;;;;;;;;;;5131757;27;20400;-52
2021/07/04 05:38:37;;;;;;;19.30;17.40;;;;;;;;;;5131713;27;20384;-52
2021/07/04 05:41:03;;;;;;;18.73;16.83;;;;;;;;;;5131817;27;20482;-52
2021/07/04 05:43:29;;;;;;;17.90;16.20;;;;;;;;;;5131561;27;20405;-52
2021/07/04 05:45:59;;;;;;;18.37;16.57;;;;;;;;;;5131424;27;20863;-52
2021/07/04 05:48:25;;;;;;;17.50;15.80;;;;;;;;;;5131620;27;20903;-52
2021/07/04 05:50:51;;;;;;;18.10;16.40;;;;;;;;;;5131681;27;20479;-52
2021/07/04 05:53:17;;;;;;;18.37;16.20;;;;;;;;;;5131374;27;20406;-52
2021/07/04 05:55:43;;;;;;;18.50;16.70;;;;;;;;;;5131357;27;20424;-52
2021/07/04 05:58:09;;;;;;;18.33;16.30;;;;;;;;;;5131574;27;20900;-52
2021/07/04 06:00:36;;;;;;;18.67;16.77;;;;;;;;;;5131610;28;20430;-52
2021/07/04 06:03:02;;;;;;;17.90;16.27;;;;;;;;;;5131418;28;20395;-52
2021/07/04 06:05:28;;;;;;;19.03;17.00;;;;;;;;;;5131247;27;20445;-52
2021/07/04 06:07:54;;;;;;;18.03;16.10;;;;;;;;;;5135612;27;20975;-52
2021/07/04 06:10:20;;;;;;;18.53;15.80;;;;;;;;;;5136267;27;20398;-52
2021/07/04 06:12:46;;;;;;;18.87;16.93;;;;;;;;;;5135723;27;20745;-52
2021/07/04 06:15:12;;;;;;;17.97;16.27;;;;;;;;;;5135285;27;20452;-52
2021/07/04 06:17:39;;;;;;;19.00;17.13;;;;;;;;;;5135610;27;20400;-52
2021/07/04 06:20:06;;;;;;;19.43;17.53;;;;;;;;;;5135486;27;20407;-52
2021/07/04 06:22:32;;;;;;;20.00;17.87;;;;;;;;;;5135492;27;20403;-52
2021/07/04 06:24:58;;;;;;;18.90;16.90;;;;;;;;;;5135142;27;20427;-52
2021/07/04 06:27:24;;;;;;;20.40;15.57;;;;;;;;;;5135377;27;20963;-52
2021/07/04 06:29:50;;;;;;;17.03;15.30;;;;;;;;;;5135211;27;20430;-52
2021/07/04 06:32:16;;;;;;;18.27;16.37;;;;;;;;;;5135399;27;20415;-52
2021/07/04 06:34:42;;;;;;;16.30;14.60;;;;;;;;;;5134849;27;20441;-52
2021/07/04 06:37:08;;;;;;;16.73;14.50;;;;;;;;;;5135217;27;20404;-52
2021/07/04 06:39:34;;;;;;;15.30;13.80;;;;;;;;;;5135156;27;20416;-52
2021/07/04 06:42:00;;;;;;;16.47;13.17;;;;;;;;;;5135153;27;20401;-52
2021/07/04 06:44:26;;;;;;;13.90;12.50;;;;;;;;;;5134901;27;20462;-52
2021/07/04 06:46:53;;;;;;;14.17;12.77;;;;;;;;;;5135372;27;20980;-52
2021/07/04 06:49:19;;;;;;;12.87;11.67;;;;;;;;;;5134892;27;20404;-52
2021/07/04 06:51:45;;;;;;;13.70;12.23;;;;;;;;;;5134939;27;20394;-52
2021/07/04 06:54:11;;;;;;;12.83;11.77;;;;;;;;;;5134526;27;20514;-52
2021/07/04 06:56:37;;;;;;;12.20;11.07;;;;;;;;;;5135074;27;20798;-52
2021/07/04 06:59:03;;;;;;;10.80;9.90;;;;;;;;;;5134900;27;20954;-52
2021/07/04 07:01:28;;;;;;;12.50;11.20;;;;;;;;;;5134865;27;20481;-52
2021/07/04 07:03:54;;;;;;;11.60;10.60;;;;;;;;;;5134600;27;20405;-52
2021/07/04 07:06:20;;;;;;;11.90;10.90;;;;;;;;;;5134568;27;20478;-52
2021/07/04 07:08:47;;;;;;;11.60;10.23;;;;;;;;;;5134859;27;20505;-52
2021/07/04 07:11:13;;;;;;;11.73;10.60;;;;;;;;;;5134735;27;20424;-52
2021/07/04 07:13:40;;;;;;;12.20;11.00;;;;;;;;;;5134550;27;20462;-52
2021/07/04 07:16:06;;;;;;;12.10;11.00;;;;;;;;;;5134303;27;20997;-52
2021/07/04 07:18:31;;;;;;;11.77;10.70;;;;;;;;;;5134410;27;20433;-52
2021/07/04 07:20:57;;;;;;;12.30;11.10;;;;;;;;;;5134258;27;20430;-52
2021/07/04 07:23:23;;;;;;;12.93;11.73;;;;;;;;;;5134305;27;20479;-52
2021/07/04 07:25:51;;;;;;;11.60;10.60;;;;;;;;;;5133956;27;20425;-52
2021/07/04 07:28:17;;;;;;;12.17;10.97;;;;;;;;;;5134338;27;20401;-52
2021/07/04 07:30:43;;;;;;;13.20;11.70;;;;;;;;;;5134091;27;20408;-52
2021/07/04 07:33:09;;;;;;;11.13;10.03;;;;;;;;;;5134040;27;20394;-52
2021/07/04 07:35:35;;;;;;;12.67;11.37;;;;;;;;;;5133749;27;20417;-52
2021/07/04 07:38:03;;;;;;;13.63;12.23;;;;;;;;;;5134102;27;20398;-52
2021/07/04 07:40:30;;;;;;;12.50;11.40;;;;;;;;;;5134142;27;20397;-53
2021/07/04 07:42:57;;;;;;;12.03;10.90;;;;;;;;;;5134034;27;20429;-52
2021/07/04 07:45:23;;;;;;;13.07;10.03;;;;;;;;;;5133592;27;20422;-52
2021/07/04 07:47:49;;;;;;;12.30;11.20;;;;;;;;;;5133807;27;20841;-52
2021/07/04 07:50:15;;;;;;;13.17;11.97;;;;;;;;;;5133751;27;20404;-52
2021/07/04 07:52:41;;;;;;;14.60;13.10;;;;;;;;;;5133909;27;20398;-52
2021/07/04 07:55:07;;;;;;;11.33;10.33;;;;;;;;;;5133534;27;20785;-52
2021/07/04 07:57:33;;;;;;;12.70;11.50;;;;;;;;;;5133774;27;20484;-52
2021/07/04 08:00:00;;;;;;;11.50;10.33;;;;;;;;;;5133626;27;20962;-52
2021/07/04 08:02:26;;;;;;;12.60;11.37;;;;;;;;;;5133526;27;20436;-52
2021/07/04 08:04:51;;;;;;;11.67;10.47;;;;;;;;;;5133249;27;20437;-52
2021/07/04 08:07:17;;;;;;;10.23;9.23;;;;;;;;;;5133382;27;20450;-52
2021/07/04 08:09:43;;;;;;;8.80;8.00;;;;;;;;;;5133543;27;20398;-52
2021/07/04 08:12:09;;;;;;;10.33;9.43;;;;;;;;;;5133441;27;20745;-52
2021/07/04 08:14:35;;;;;;;10.57;9.67;;;;;;;;;;5133061;27;20444;-52
2021/07/04 08:17:01;;;;;;;9.40;8.60;;;;;;;;;;5118448;27;20894;-52
2021/07/04 08:19:27;;;;;;;10.60;9.60;;;;;;;;;;5112137;28;20876;-52
2021/07/04 08:21:53;;;;;;;11.57;10.43;;;;;;;;;;5112742;28;20405;-52
2021/07/04 08:24:19;;;;;;;8.80;8.03;;;;;;;;;;5112379;28;20479;-52
2021/07/04 08:26:45;;;;;;;8.40;7.70;;;;;;;;;;5112889;28;20450;-52
2021/07/04 08:29:11;;;;;;;9.90;8.90;;;;;;;;;;5092393;28;20822;-52
2021/07/04 08:31:37;;;;;;;7.97;7.23;;;;;;;;;;5112243;28;20398;-52
2021/07/04 08:34:03;;;;;;;7.87;7.30;;;;;;;;;;5111920;28;20509;-52
2021/07/04 08:36:32;;;;;;;7.80;7.20;;;;;;;;;;5112396;28;20406;-52
2021/07/04 08:38:58;;;;;;;7.87;7.17;;;;;;;;;;5112307;28;20822;-52
2021/07/04 08:41:24;;;;;;;6.73;6.23;;;;;;;;;;5112415;28;20402;-52
2021/07/04 08:43:52;;;;;;;7.60;6.90;;;;;;;;;;5111392;28;20779;-52
2021/07/04 08:46:18;;;;;;;15.20;13.57;;;;;;;;;;5111613;28;20446;-52
2021/07/04 08:48:44;;;;;;;8.23;7.50;;;;;;;;;;5109601;28;20402;-52
2021/07/04 08:51:10;;;;;;;7.90;7.20;;;;;;;;;;5112086;28;20399;-53
2021/07/04 08:53:37;;;;;;;7.83;7.13;;;;;;;;;;5112507;28;20862;-52
2021/07/04 08:56:03;;;;;;;7.77;7.17;;;;;;;;;;5112595;28;20422;-52
2021/07/04 08:58:29;;;;;;;7.37;6.83;;;;;;;;;;5112122;28;20464;-52
2021/07/04 09:01:25;;;;;;;9.30;8.50;;;;;;;;;;5111993;28;20407;-52
2021/07/04 09:03:52;;;;;;;8.10;7.50;;;;;;;;;;5094469;28;20411;-52
2021/07/04 09:06:35;;;;;;;8.63;7.83;;;;;;;;;;5111746;28;20451;-52
2021/07/04 09:09:13;;;;;;;6.43;5.83;;;;;;;;;;5109988;28;20425;-52
2021/07/04 09:11:50;;;;;;;8.50;7.70;;;;;;;;;;5111817;28;20486;-52
2021/07/04 09:14:16;;;;;;;9.03;8.17;;;;;;;;;;5111392;28;20412;-52
2021/07/04 09:16:48;;;;;;;10.80;8.23;;;;;;;;;;5111768;28;20398;-53
2021/07/04 09:19:16;;;;;;;10.10;9.20;;;;;;;;;;5111709;28;21066;-52
2021/07/04 09:21:42;;;;;;;8.10;7.40;;;;;;;;;;5111298;28;20410;-52
2021/07/04 09:24:23;;;;;;;7.57;6.97;;;;;;;;;;5111252;28;20497;-52
2021/07/04 09:26:49;;;;;;;6.10;5.70;;;;;;;;;;5111158;28;20442;-53
2021/07/04 09:29:15;;;;;;;7.23;6.63;;;;;;;;;;5111410;28;20395;-53
2021/07/04 09:31:41;;;;;;;5.83;5.43;;;;;;;;;;5111248;28;20806;-54
2021/07/04 09:34:11;;;;;;;7.47;6.77;;;;;;;;;;5110769;28;20418;-54
2021/07/04 09:36:38;;;;;;;27.70;24.90;;;;;;;;;;5111194;28;20225;-53
2021/07/04 09:39:17;;;;;;;5.90;5.50;;;;;;;;;;5111304;28;20403;-53
2021/07/04 09:42:02;;;;;;;7.83;7.03;;;;;;;;;;5110314;28;20425;-53
2021/07/04 09:44:28;;;;;;;7.23;6.60;;;;;;;;;;5110564;28;20422;-52
2021/07/04 09:47:13;;;;;;;7.43;6.70;;;;;;;;;;5111500;28;20446;-53
2021/07/04 09:49:39;;;;;;;7.53;6.87;;;;;;;;;;5111480;28;20440;-52
2021/07/04 09:52:22;;;;;;;6.87;6.37;;;;;;;;;;5110963;28;20433;-53
2021/07/04 09:54:58;;;;;;;7.30;6.60;;;;;;;;;;5110736;28;20465;-53
2021/07/04 09:57:25;;;;;;;7.27;6.13;;;;;;;;;;5110966;28;20390;-53
2021/07/04 10:00:11;;;;;;;7.93;7.20;;;;;;;;;;5111159;28;20405;-52
2021/07/04 10:02:37;;;;;;;7.83;7.20;;;;;;;;;;5110938;28;20394;-52
2021/07/04 10:05:15;;;;;;;8.43;7.60;;;;;;;;;;5110730;28;20467;-52
2021/07/04 10:07:42;;;;;;;7.10;6.40;;;;;;;;;;5110777;28;20537;-52
2021/07/04 10:10:08;;;;;;;6.77;6.20;;;;;;;;;;5110823;28;20394;-53
2021/07/04 10:12:34;;;;;;;7.33;6.73;;;;;;;;;;5110843;28;21114;-53
2021/07/04 10:15:00;;;;;;;7.57;6.97;;;;;;;;;;5110730;28;20415;-53
2021/07/04 10:17:28;;;;;;;7.10;6.60;;;;;;;;;;5110915;28;20744;-53
2021/07/04 10:19:55;;;;;;;7.40;6.70;;;;;;;;;;5110868;28;20452;-52
2021/07/04 10:22:21;;;;;;;7.33;6.80;;;;;;;;;;5110778;28;20435;-52
2021/07/04 10:24:47;;;;;;;7.40;6.80;;;;;;;;;;5110489;28;20429;-52
2021/07/04 10:27:14;;;;;;;7.17;6.50;;;;;;;;;;5092417;28;20490;-52
2021/07/04 10:29:40;;;;;;;8.33;7.67;;;;;;;;;;5110757;28;20425;-52
2021/07/04 10:32:15;;;;;;;7.00;6.40;;;;;;;;;;5110816;28;20437;-52
2021/07/04 10:34:45;;;;;;;7.87;7.13;;;;;;;;;;5110212;28;20433;-52
2021/07/04 10:37:11;;;;;;;7.60;7.00;;;;;;;;;;5110765;28;20425;-52
2021/07/04 10:39:37;;;;;;;9.80;8.30;;;;;;;;;;5110612;28;20539;-52
2021/07/04 10:42:04;;;;;;;8.43;7.73;;;;;;;;;;5110641;28;20493;-53
2021/07/04 10:44:36;;;;;;;6.17;5.67;;;;;;;;;;5110293;28;20452;-53
2021/07/04 10:47:26;;;;;;;7.27;5.20;;;;;;;;;;5110975;28;20442;-53
2021/07/04 10:49:52;;;;;;;5.93;5.30;;;;;;;;;;5110565;28;20399;-53
2021/07/04 10:52:18;;;;;;;5.60;5.13;;;;;;;;;;5111779;28;20544;-54
2021/07/04 10:54:45;;;;;;;7.00;5.40;;;;;;;;;;5112396;28;20418;-54
2021/07/04 10:57:19;;;;;;;5.93;5.53;;;;;;;;;;5115244;28;20251;-53
2021/07/04 11:00:01;;;;;;;6.43;5.93;;;;;;;;;;5114504;28;20783;-53
2021/07/04 11:02:46;;;;;;;10.73;6.20;;;;;;;;;;5114598;28;20478;-53
2021/07/04 11:05:13;;;;;;;10.87;7.27;;;;;;;;;;5113953;28;20421;-53
2021/07/04 11:07:55;;;;;;;7.77;7.20;;;;;;;;;;5114197;28;20447;-53
2021/07/04 11:10:23;;;;;;;9.37;7.10;;;;;;;;;;5114191;28;20431;-52
2021/07/04 11:12:50;;;;;;;9.27;8.10;;;;;;;;;;5114215;28;20403;-52
2021/07/04 11:15:22;;;;;;;8.77;7.00;;;;;;;;;;5113770;28;21025;-53
2021/07/04 11:18:00;;;;;;;12.13;8.20;;;;;;;;;;5114124;28;20495;-52
2021/07/04 11:20:27;;;;;;;9.50;8.70;;;;;;;;;;5113977;28;20875;-52
2021/07/04 11:23:01;;;;;;;11.70;8.10;;;;;;;;;;5113955;28;20489;-52
2021/07/04 11:25:46;;;;;;;9.20;8.40;;;;;;;;;;5113513;28;20425;-52
2021/07/04 11:28:18;;;;;;;10.40;9.37;;;;;;;;;;5113583;28;20973;-52
2021/07/04 11:30:50;;;;;;;8.77;7.63;;;;;;;;;;5113688;28;20445;-52
2021/07/04 11:33:20;;;;;;;9.50;8.17;;;;;;;;;;5113495;28;21091;-52
2021/07/04 11:35:46;;;;;;;8.40;7.60;;;;;;;;;;5113453;28;20410;-52
2021/07/04 11:38:16;;;;;;;9.80;8.30;;;;;;;;;;5113649;28;20413;-52
2021/07/04 11:40:42;;;;;;;20.93;10.10;;;;;;;;;;5113517;28;20450;-52
2021/07/04 11:43:19;;;;;;;11.87;9.87;;;;;;;;;;5113389;28;20937;-52
2021/07/04 11:45:49;;;;;;;19.10;10.93;;;;;;;;;;5113285;28;20422;-52
2021/07/04 11:48:15;;;;;;;13.70;9.87;;;;;;;;;;5112324;28;20514;-52
2021/07/04 11:50:53;;;;;;;19.97;10.30;;;;;;;;;;5113203;28;20395;-52
2021/07/04 11:53:20;;;;;;;10.07;9.17;;;;;;;;;;5113456;28;20390;-52
2021/07/04 11:55:58;;;;;;;10.60;9.40;;;;;;;;;;5112889;28;20427;-52
2021/07/04 11:58:28;;;;;;;9.67;8.87;;;;;;;;;;5113413;28;20916;-52
2021/07/04 12:00:55;;;;;;;11.20;10.00;;;;;;;;;;5113189;28;20816;-52
2021/07/04 12:03:25;;;;;;;12.73;11.53;;;;;;;;;;5112286;28;20436;-52
2021/07/04 12:06:03;;;;;;;12.17;10.73;;;;;;;;;;5112786;28;20410;-52
2021/07/04 12:08:29;;;;;;;14.07;12.77;;;;;;;;;;5113076;28;20405;-52
2021/07/04 12:10:55;;;;;;;11.90;10.80;;;;;;;;;;5113742;28;20390;-51
2021/07/04 12:13:21;;;;;;;10.70;9.80;;;;;;;;;;5113026;28;20423;-51
2021/07/04 12:15:49;;;;;;;12.00;10.07;;;;;;;;;;5112840;28;20418;-51
2021/07/04 12:18:16;;;;;;;11.93;9.23;;;;;;;;;;5113129;28;20812;-51
2021/07/04 12:20:43;;;;;;;10.50;9.40;;;;;;;;;;5113084;28;20391;-52
2021/07/04 12:23:12;;;;;;;9.40;8.40;;;;;;;;;;5112852;28;20442;-52
2021/07/04 12:25:42;;;;;;;8.47;7.60;;;;;;;;;;5112837;28;20509;-51
2021/07/04 12:28:12;;;;;;;8.40;6.60;;;;;;;;;;5113048;28;20460;-51
2021/07/04 12:30:40;;;;;;;8.67;6.90;;;;;;;;;;5113166;28;20403;-51
2021/07/04 12:33:19;;;;;;;7.43;6.83;;;;;;;;;;5094728;28;20442;-51
2021/07/04 12:35:45;;;;;;;8.43;7.63;;;;;;;;;;5113003;28;20449;-52
2021/07/04 12:38:11;;;;;;;8.90;8.07;;;;;;;;;;5113355;28;20399;-51
2021/07/04 12:40:48;;;;;;;11.33;7.73;;;;;;;;;;5113170;28;20414;-51
2021/07/04 12:43:15;;;;;;;9.63;8.77;;;;;;;;;;5111303;28;20395;-51
2021/07/04 12:45:42;;;;;;;10.00;9.00;;;;;;;;;;5102599;28;20438;-52
2021/07/04 12:48:08;;;;;;;8.80;8.00;;;;;;;;;;5079891;28;20494;-51
2021/07/04 12:50:57;;;;;;;8.90;8.03;;;;;;;;;;5093739;28;20400;-51
2021/07/04 12:55:56;;;;;;;10.73;9.67;;;;;;;;;;5064435;28;20236;-56
2021/07/04 12:58:28;;;;;;;9.00;8.20;;;;;;;;;;5074024;28;20468;-56
2021/07/04 13:00:56;;;;;;;8.87;7.73;;;;;;;;;;5071784;28;20645;-57
2021/07/04 13:03:42;;;;;;;9.23;7.60;;;;;;;;;;5071301;28;20412;-57
2021/07/04 13:06:09;;;;;;;5.70;5.20;;;;;;;;;;5051316;28;20397;-57
2021/07/04 13:08:35;;;;;;;5.70;4.60;;;;;;;;;;5051181;28;20497;-57
2021/07/04 13:11:01;;;;;;;4.93;4.53;;;;;;;;;;5077342;22;20525;-51
2021/07/04 13:13:27;;;;;;;6.00;5.20;;;;;;;;;;5030383;28;20390;-50
2021/07/04 13:15:53;;;;;;;4.87;4.47;;;;;;;;;;5028845;28;20420;-52
2021/07/04 13:18:29;;;;;;;4.13;3.80;;;;;;;;;;5031395;28;20965;-51
2021/07/04 13:20:56;;;;;;;4.67;4.27;;;;;;;;;;5030225;28;20422;-51
2021/07/04 13:23:22;;;;;;;3.77;3.47;;;;;;;;;;5031194;28;20413;-51
2021/07/04 13:25:54;;;;;;;3.53;3.33;;;;;;;;;;5030740;28;20735;-51
2021/07/04 13:28:20;;;;;;;4.37;3.20;;;;;;;;;;5031062;28;20466;-52
2021/07/04 13:30:48;;;;;;;7.00;3.73;;;;;;;;;;5030892;28;20793;-51
2021/07/04 13:33:14;;;;;;;3.10;2.90;;;;;;;;;;5031003;28;20408;-51
2021/07/04 13:35:42;;;;;;;3.00;2.70;;;;;;;;;;5030661;28;20408;-50
2021/07/04 13:38:09;;;;;;;7.90;2.73;;;;;;;;;;5031077;28;20423;-51
2021/07/04 13:40:37;;;;;;;5.50;3.20;;;;;;;;;;5035801;28;20517;-51
2021/07/04 13:43:03;;;;;;;4.50;2.60;;;;;;;;;;5030783;28;20429;-51
2021/07/04 13:45:32;;;;;;;3.63;3.33;;;;;;;;;;5030008;28;20870;-53
2021/07/04 13:48:01;;;;;;;3.40;3.10;;;;;;;;;;5030204;28;20962;-51
2021/07/04 13:50:27;;;;;;;3.57;3.27;;;;;;;;;;5030997;28;20414;-52
2021/07/04 13:52:53;;;;;;;3.80;3.43;;;;;;;;;;5030440;28;20394;-51
2021/07/04 13:55:19;;;;;;;6.17;4.17;;;;;;;;;;5030077;28;20406;-51
2021/07/04 13:57:45;;;;;;;5.57;4.10;;;;;;;;;;5030114;28;20796;-52
2021/07/04 14:00:12;;;;;;;3.97;3.67;;;;;;;;;;5030485;28;20425;-51
2021/07/04 14:02:38;;;;;;;4.00;3.03;;;;;;;;;;5030550;28;20433;-52
2021/07/04 14:05:05;;;;;;;4.00;3.23;;;;;;;;;;5030506;28;20429;-53
2021/07/04 14:07:31;;;;;;;4.67;4.27;;;;;;;;;;5031165;28;20814;-51
2021/07/04 14:09:57;;;;;;;4.27;3.47;;;;;;;;;;5030128;28;20420;-51
2021/07/04 14:12:23;;;;;;;4.07;3.60;;;;;;;;;;5031355;28;20417;-52
2021/07/04 14:14:49;;;;;;;3.27;3.07;;;;;;;;;;5030431;28;20425;-51
2021/07/04 14:17:15;;;;;;;2.80;2.60;;;;;;;;;;5033184;28;20455;-51
2021/07/04 14:19:50;;;;;;;2.83;2.60;;;;;;;;;;5031517;28;20412;-50
2021/07/04 14:22:16;;;;;;;3.17;2.97;;;;;;;;;;5014385;28;20982;-51
2021/07/04 14:24:42;;;;;;;3.33;2.97;;;;;;;;;;5030342;28;20836;-50
2021/07/04 14:27:08;;;;;;;2.73;2.63;;;;;;;;;;5032207;28;20563;-51
2021/07/04 14:29:34;;;;;;;3.07;2.80;;;;;;;;;;5034748;28;20934;-52
2021/07/04 14:32:00;;;;;;;3.70;3.10;;;;;;;;;;5034486;28;20812;-50